Time;durP1;ratioP1;P1;durP2;ratioP2;P2;SDS_P1;SDS_P2;PMS_P1;PMS_P2;Temp;Humidity;BMP_temperature;BMP_pressure;BME280_temperature;BME280_humidity;BME280_pressure;Samples;Min_cycle;Max_cycle;Signal;HPM_P1;HPM_P2
2024/03/18 00:02:30;;;;;;;19.45;4.05;;;10.90;99.90;;;;;;5038815;28;20193;-84
2024/03/18 00:04:56;;;;;;;17.25;4.30;;;10.80;99.90;;;;;;5039456;28;20166;-84
2024/03/18 00:07:23;;;;;;;16.00;3.50;;;10.80;99.90;;;;;;5056572;28;20294;-84
2024/03/18 00:09:49;;;;;;;15.93;3.30;;;10.70;99.90;;;;;;5050031;28;20232;-86
2024/03/18 00:12:15;;;;;;;18.88;3.45;;;10.70;99.90;;;;;;5069312;28;20215;-86
2024/03/18 00:14:43;;;;;;;17.73;4.70;;;10.80;99.90;;;;;;5070175;28;20162;-86
2024/03/18 00:17:09;;;;;;;14.95;2.75;;;10.80;99.90;;;;;;5051401;28;20697;-86
2024/03/18 00:19:35;;;;;;;17.63;5.63;;;10.80;99.90;;;;;;5051105;28;20170;-86
2024/03/18 00:22:01;;;;;;;19.10;4.60;;;10.80;99.90;;;;;;5068697;28;20248;-86
2024/03/18 00:24:27;;;;;;;15.90;3.37;;;10.80;99.90;;;;;;5069413;28;20424;-86
2024/03/18 00:26:52;;;;;;;14.80;3.60;;;10.80;99.90;;;;;;5069632;28;20220;-86
2024/03/18 00:29:19;;;;;;;19.67;4.03;;;10.80;99.90;;;;;;5068970;28;20214;-86
2024/03/18 00:31:46;;;;;;;17.00;3.97;;;10.80;99.90;;;;;;5070002;28;20189;-86
2024/03/18 00:34:13;;;;;;;15.50;3.40;;;10.90;99.90;;;;;;5070606;28;20215;-86
2024/03/18 00:36:39;;;;;;;15.07;3.65;;;10.80;99.90;;;;;;5069351;28;20165;-86
2024/03/18 00:39:06;;;;;;;16.50;3.80;;;10.80;99.90;;;;;;5069526;28;20174;-86
2024/03/18 00:41:45;;;;;;;15.73;3.20;;;10.90;99.90;;;;;;5051500;28;20440;-86
2024/03/18 00:44:16;;;;;;;15.90;3.83;;;10.90;99.90;;;;;;5051794;28;20244;-86
2024/03/18 00:46:44;;;;;;;16.00;3.58;;;10.90;99.90;;;;;;5051548;28;20569;-86
2024/03/18 00:49:10;;;;;;;16.92;3.72;;;10.90;99.90;;;;;;5069438;28;20165;-86
2024/03/18 00:51:36;;;;;;;16.48;4.35;;;10.90;99.90;;;;;;5069212;28;20206;-86
2024/03/18 00:54:02;;;;;;;16.17;3.70;;;10.90;99.90;;;;;;5050949;28;20169;-86
2024/03/18 00:56:28;;;;;;;17.43;5.10;;;10.90;99.90;;;;;;5069577;28;20165;-85
2024/03/18 00:58:54;;;;;;;20.00;4.67;;;10.90;99.90;;;;;;5069304;28;20259;-86
2024/03/18 01:01:20;;;;;;;16.75;3.95;;;10.90;99.90;;;;;;5069330;28;20208;-86
2024/03/18 01:03:46;;;;;;;26.93;6.03;;;10.80;99.90;;;;;;5067396;28;20174;-85
2024/03/18 01:06:12;;;;;;;18.97;5.90;;;10.80;99.90;;;;;;5045832;28;20407;-85
2024/03/18 01:08:37;;;;;;;17.80;5.63;;;10.80;99.90;;;;;;5045625;28;20403;-85
2024/03/18 01:11:03;;;;;;;22.63;5.53;;;10.80;99.90;;;;;;5044450;28;20802;-85
2024/03/18 01:13:33;;;;;;;19.63;6.00;;;10.80;99.90;;;;;;5043716;28;20295;-86
2024/03/18 01:15:59;;;;;;;28.85;7.40;;;10.70;99.90;;;;;;5043302;28;20411;-86
2024/03/18 01:18:25;;;;;;;25.70;7.75;;;10.70;99.90;;;;;;5061048;28;20168;-86
2024/03/18 01:20:52;;;;;;;20.40;6.75;;;10.70;99.90;;;;;;5045261;28;20193;-87
2024/03/18 01:23:18;;;;;;;22.88;7.78;;;10.70;99.90;;;;;;5044238;28;20177;-87
2024/03/18 01:25:44;;;;;;;25.63;7.60;;;10.60;99.90;;;;;;5059996;28;20166;-86
2024/03/18 01:28:09;;;;;;;25.85;8.05;;;10.50;99.90;;;;;;5037197;28;20746;-86
2024/03/18 01:30:35;;;;;;;21.33;6.97;;;10.50;99.90;;;;;;5054855;28;20260;-85
2024/03/18 01:33:00;;;;;;;23.13;8.10;;;10.50;99.90;;;;;;5055158;28;20172;-86
2024/03/18 01:35:26;;;;;;;23.80;7.87;;;10.50;99.90;;;;;;5055146;28;20166;-86
2024/03/18 01:37:52;;;;;;;22.93;7.43;;;10.50;99.90;;;;;;5055006;28;20184;-86
2024/03/18 01:40:18;;;;;;;25.45;9.57;;;10.50;99.90;;;;;;5054555;28;20161;-86
2024/03/18 01:42:44;;;;;;;22.80;7.47;;;10.50;99.90;;;;;;5054591;28;20630;-86
2024/03/18 01:45:10;;;;;;;23.57;8.33;;;10.50;99.90;;;;;;5120756;22;20217;-85
2024/03/18 01:47:38;;;;;;;24.67;9.05;;;10.40;99.90;;;;;;5036430;28;20921;-86
2024/03/18 01:50:04;;;;;;;24.50;8.68;;;10.40;99.90;;;;;;5055176;28;20168;-86
2024/03/18 01:52:30;;;;;;;24.95;8.65;;;10.40;99.90;;;;;;5036894;28;20224;-86
2024/03/18 01:54:59;;;;;;;24.00;9.40;;;10.40;99.90;;;;;;5036995;28;20169;-86
2024/03/18 01:57:25;;;;;;;26.23;9.07;;;10.40;99.90;;;;;;5037013;28;20176;-86
2024/03/18 01:59:51;;;;;;;24.80;8.68;;;10.50;99.90;;;;;;5054804;28;20165;-86
2024/03/18 02:02:17;;;;;;;22.95;8.10;;;10.50;99.90;;;;;;5036674;28;20197;-87
2024/03/18 02:04:43;;;;;;;24.02;8.93;;;10.40;99.90;;;;;;5036283;28;20723;-87
2024/03/18 02:07:24;;;;;;;26.17;9.90;;;10.50;99.90;;;;;;5036280;28;20205;-87
2024/03/18 02:09:50;;;;;;;23.73;9.15;;;10.40;99.90;;;;;;5020301;28;20434;-87
2024/03/18 02:12:17;;;;;;;24.07;9.03;;;10.40;99.90;;;;;;5054465;28;20193;-87
2024/03/18 02:14:45;;;;;;;29.52;9.77;;;10.40;99.90;;;;;;5054483;28;20411;-87
2024/03/18 02:17:12;;;;;;;22.23;7.80;;;10.40;99.90;;;;;;5035568;28;20640;-87
2024/03/18 02:19:39;;;;;;;26.42;9.68;;;10.40;99.90;;;;;;5035919;28;20169;-87
2024/03/18 02:22:06;;;;;;;23.25;9.45;;;10.40;99.90;;;;;;5053686;28;20195;-87
2024/03/18 02:24:35;;;;;;;31.15;11.15;;;10.40;99.90;;;;;;5035883;28;20172;-87
2024/03/18 02:27:13;;;;;;;25.85;9.57;;;10.40;99.90;;;;;;5035670;28;20183;-87
2024/03/18 02:29:39;;;;;;;28.02;10.23;;;10.40;99.90;;;;;;5053709;28;20153;-87
2024/03/18 02:32:05;;;;;;;25.65;9.00;;;10.30;99.90;;;;;;5053367;28;20278;-87
2024/03/18 02:34:32;;;;;;;25.20;10.10;;;10.30;99.90;;;;;;5053786;28;20657;-87
2024/03/18 02:36:58;;;;;;;25.10;9.07;;;10.30;99.90;;;;;;5053894;28;20258;-87
2024/03/18 02:39:24;;;;;;;28.20;10.40;;;10.30;99.90;;;;;;5053494;28;20192;-87
2024/03/18 02:41:54;;;;;;;26.42;11.05;;;10.30;99.90;;;;;;5053747;28;20913;-87
2024/03/18 02:44:20;;;;;;;30.30;10.52;;;10.30;99.90;;;;;;5038417;28;20199;-88
2024/03/18 02:46:47;;;;;;;26.17;10.90;;;10.30;99.90;;;;;;5037936;28;20191;-87
2024/03/18 02:49:13;;;;;;;29.55;10.02;;;10.30;99.90;;;;;;5037809;28;20188;-87
2024/03/18 02:51:39;;;;;;;24.02;9.60;;;10.30;99.90;;;;;;5054836;28;20280;-88
2024/03/18 02:54:05;;;;;;;27.73;10.38;;;10.30;99.90;;;;;;5055504;28;20199;-87
2024/03/18 02:56:32;;;;;;;29.92;9.13;;;10.30;99.90;;;;;;5054606;28;20590;-87
2024/03/18 02:58:57;;;;;;;25.38;8.50;;;10.40;99.90;;;;;;5054393;28;20522;-88
2024/03/18 03:01:24;;;;;;;25.07;8.20;;;10.30;99.90;;;;;;5054391;28;20188;-87
2024/03/18 03:03:54;;;;;;;28.48;9.63;;;10.40;99.90;;;;;;5036925;28;20458;-88
2024/03/18 03:06:19;;;;;;;22.65;7.78;;;10.30;99.90;;;;;;5054638;28;20188;-88
2024/03/18 03:08:46;;;;;;;24.53;9.70;;;10.30;99.90;;;;;;5036652;28;20174;-87
2024/03/18 03:11:12;;;;;;;23.85;8.98;;;10.30;99.90;;;;;;5036562;28;20451;-88
2024/03/18 03:13:38;;;;;;;27.27;9.23;;;10.30;99.90;;;;;;5036373;28;20169;-87
2024/03/18 03:16:04;;;;;;;27.17;9.63;;;10.30;99.90;;;;;;5053950;28;20314;-88
2024/03/18 03:18:30;;;;;;;27.20;8.52;;;10.30;99.90;;;;;;5053882;28;20408;-87
2024/03/18 03:20:58;;;;;;;26.53;9.40;;;10.40;99.90;;;;;;5054294;28;20735;-88
2024/03/18 03:23:23;;;;;;;24.73;9.30;;;10.30;99.90;;;;;;5054312;28;20165;-87
2024/03/18 03:25:49;;;;;;;25.30;9.23;;;10.40;99.90;;;;;;5036901;28;20174;-87
2024/03/18 03:28:17;;;;;;;27.00;9.60;;;10.40;99.90;;;;;;5054107;28;20168;-87
2024/03/18 03:30:43;;;;;;;24.33;8.63;;;10.40;99.90;;;;;;5038015;28;20678;-88
2024/03/18 03:33:09;;;;;;;26.08;9.80;;;10.40;99.90;;;;;;5039946;28;20167;-87
2024/03/18 03:35:35;;;;;;;25.17;9.23;;;10.30;99.90;;;;;;5039725;28;20260;-88
2024/03/18 03:38:01;;;;;;;22.73;8.03;;;10.30;99.90;;;;;;5039581;28;20276;-87
2024/03/18 03:40:26;;;;;;;24.47;9.27;;;10.30;99.90;;;;;;5057200;28;20219;-88
2024/03/18 03:42:52;;;;;;;28.10;7.60;;;10.30;99.90;;;;;;5039896;28;20435;-88
2024/03/18 03:45:24;;;;;;;24.23;9.60;;;10.30;99.90;;;;;;5039906;28;20423;-88
2024/03/18 03:47:52;;;;;;;22.80;8.55;;;10.30;99.90;;;;;;5040168;28;20254;-87
2024/03/18 03:50:18;;;;;;;25.92;9.02;;;10.30;99.90;;;;;;5058538;28;20161;-87
2024/03/18 03:52:44;;;;;;;22.77;7.50;;;10.30;99.90;;;;;;5058095;28;20196;-87
2024/03/18 03:55:09;;;;;;;25.60;8.83;;;10.30;99.90;;;;;;5040034;28;20226;-88
2024/03/18 03:57:35;;;;;;;19.87;7.23;;;10.30;99.90;;;;;;5057945;28;20166;-87
2024/03/18 04:00:03;;;;;;;24.90;8.53;;;10.30;99.90;;;;;;5057410;28;20157;-87
2024/03/18 04:02:28;;;;;;;27.88;9.10;;;10.40;99.90;;;;;;5038548;28;20219;-87
2024/03/18 04:04:55;;;;;;;22.43;8.63;;;10.40;99.90;;;;;;5038652;28;20193;-87
2024/03/18 04:07:23;;;;;;;20.50;8.40;;;10.30;99.90;;;;;;5038599;28;20227;-87
2024/03/18 04:09:52;;;;;;;22.40;8.10;;;10.40;99.90;;;;;;5038475;28;20170;-87
2024/03/18 04:12:18;;;;;;;23.35;8.50;;;10.30;99.90;;;;;;5056040;28;20232;-87
2024/03/18 04:14:49;;;;;;;23.53;8.47;;;10.40;99.90;;;;;;5056645;28;20538;-87
2024/03/18 04:17:15;;;;;;;23.13;8.55;;;10.40;99.90;;;;;;5056140;28;20165;-87
2024/03/18 04:19:42;;;;;;;25.17;8.43;;;10.40;99.90;;;;;;5038260;28;20215;-87
2024/03/18 04:22:07;;;;;;;22.25;7.57;;;10.40;99.90;;;;;;5038188;28;20597;-87
2024/03/18 04:24:33;;;;;;;23.20;8.40;;;10.40;99.90;;;;;;5055875;28;20214;-87
2024/03/18 04:26:59;;;;;;;28.33;8.93;;;10.40;99.90;;;;;;5037976;28;20215;-87
2024/03/18 04:29:24;;;;;;;23.80;8.07;;;10.40;99.90;;;;;;5037678;28;20250;-87
2024/03/18 04:31:50;;;;;;;22.80;7.70;;;10.40;99.90;;;;;;5038081;28;20194;-87
2024/03/18 04:34:16;;;;;;;22.90;8.00;;;10.40;99.90;;;;;;5055935;28;20173;-87
2024/03/18 04:36:41;;;;;;;23.63;8.03;;;10.30;99.90;;;;;;5055538;28;20162;-87
2024/03/18 04:39:10;;;;;;;24.23;8.47;;;10.30;99.90;;;;;;5055440;28;20163;-87
2024/03/18 04:41:36;;;;;;;22.17;7.57;;;10.40;99.90;;;;;;5037060;28;20431;-87
2024/03/18 04:44:02;;;;;;;23.40;7.30;;;10.30;99.90;;;;;;5055405;28;20170;-87
2024/03/18 04:46:28;;;;;;;21.25;7.80;;;10.40;99.90;;;;;;5055523;28;20438;-87
2024/03/18 04:48:58;;;;;;;21.35;8.13;;;10.30;99.90;;;;;;5055522;28;20170;-87
2024/03/18 04:51:24;;;;;;;18.70;6.47;;;10.20;99.90;;;;;;5055165;28;20193;-88
2024/03/18 04:53:49;;;;;;;21.63;7.63;;;10.20;99.90;;;;;;5038381;28;20223;-87
2024/03/18 04:56:15;;;;;;;24.37;8.13;;;10.20;99.90;;;;;;5037346;28;20350;-87
2024/03/18 04:58:40;;;;;;;24.43;7.57;;;10.20;99.90;;;;;;5037137;28;20215;-87
2024/03/18 05:01:06;;;;;;;23.27;8.13;;;10.20;99.90;;;;;;5037361;28;20193;-87
2024/03/18 05:03:32;;;;;;;20.73;6.37;;;10.10;99.90;;;;;;5037322;28;20165;-87
2024/03/18 05:05:57;;;;;;;20.47;7.00;;;10.10;99.90;;;;;;5055209;28;20169;-87
2024/03/18 05:08:23;;;;;;;22.33;7.27;;;10.20;99.90;;;;;;5055034;28;20171;-87
2024/03/18 05:10:49;;;;;;;21.17;7.40;;;10.10;99.90;;;;;;5054945;28;20181;-87
2024/03/18 05:13:15;;;;;;;21.07;7.10;;;10.10;99.90;;;;;;5037565;28;20638;-87
2024/03/18 05:15:40;;;;;;;22.50;7.93;;;10.10;99.90;;;;;;5055431;28;20661;-87
2024/03/18 05:18:09;;;;;;;22.90;7.50;;;10.10;99.90;;;;;;5059398;28;20909;-87
2024/03/18 05:20:35;;;;;;;20.42;6.75;;;10.10;99.90;;;;;;5057288;28;20177;-87
2024/03/18 05:23:00;;;;;;;21.43;6.90;;;10.10;99.90;;;;;;5056739;28;20168;-87
2024/03/18 05:25:26;;;;;;;22.23;7.87;;;10.10;99.90;;;;;;5056780;28;20240;-87
2024/03/18 05:27:52;;;;;;;23.38;8.25;;;10.10;99.90;;;;;;5056072;28;20196;-87
2024/03/18 05:30:18;;;;;;;20.90;7.50;;;10.10;99.90;;;;;;5056175;28;20211;-87
2024/03/18 05:32:43;;;;;;;24.60;9.00;;;10.10;99.90;;;;;;5056084;28;20188;-87
2024/03/18 05:35:09;;;;;;;26.90;8.17;;;10.10;99.90;;;;;;5056172;28;20192;-87
2024/03/18 05:37:37;;;;;;;23.43;7.63;;;10.10;99.90;;;;;;5056000;28;20169;-88
2024/03/18 05:40:03;;;;;;;22.10;7.25;;;10.10;99.90;;;;;;5037869;28;20256;-87
2024/03/18 05:42:31;;;;;;;22.05;7.50;;;10.10;99.90;;;;;;5037758;28;20188;-87
2024/03/18 05:44:56;;;;;;;24.98;7.95;;;10.00;99.90;;;;;;5037671;28;20195;-87
2024/03/18 05:47:22;;;;;;;22.40;7.40;;;10.00;99.90;;;;;;5037932;28;20672;-88
2024/03/18 05:49:52;;;;;;;19.47;7.03;;;9.90;99.90;;;;;;5055805;28;20399;-87
2024/03/18 05:52:18;;;;;;;21.40;7.38;;;9.90;99.90;;;;;;5055143;28;20215;-87
2024/03/18 05:54:43;;;;;;;20.77;7.40;;;9.90;99.90;;;;;;5037754;28;20192;-87
2024/03/18 05:57:09;;;;;;;20.67;7.10;;;9.90;99.90;;;;;;5055319;28;20184;-87
2024/03/18 05:59:34;;;;;;;22.13;7.50;;;9.90;99.90;;;;;;5055633;28;20162;-87
2024/03/18 06:02:00;;;;;;;20.80;7.60;;;9.90;99.90;;;;;;5055083;28;20264;-88
2024/03/18 06:04:28;;;;;;;19.90;8.10;;;9.90;99.90;;;;;;5055337;28;20668;-88
2024/03/18 06:06:54;;;;;;;26.63;7.93;;;9.90;99.90;;;;;;5037411;28;20169;-87
2024/03/18 06:09:19;;;;;;;21.33;6.47;;;9.90;99.90;;;;;;5055547;28;20222;-87
2024/03/18 06:11:45;;;;;;;21.60;6.70;;;9.90;99.90;;;;;;5054613;28;20203;-87
2024/03/18 06:14:14;;;;;;;22.87;7.90;;;9.90;99.90;;;;;;5037613;28;20801;-87
2024/03/18 06:16:40;;;;;;;24.58;7.75;;;10.00;99.90;;;;;;5055359;28;20161;-87
2024/03/18 06:19:06;;;;;;;22.80;8.43;;;9.90;99.90;;;;;;5055314;28;20219;-87
2024/03/18 06:21:48;;;;;;;23.33;8.80;;;10.00;99.90;;;;;;5055409;28;20558;-88
2024/03/18 06:24:22;;;;;;;19.63;6.80;;;10.10;99.90;;;;;;5037495;28;20589;-87
2024/03/18 06:26:48;;;;;;;24.50;8.30;;;10.10;99.90;;;;;;5055141;28;20187;-88
2024/03/18 06:29:14;;;;;;;25.73;8.80;;;10.20;99.90;;;;;;5054874;28;20173;-87
2024/03/18 06:31:40;;;;;;;25.37;8.23;;;10.20;99.90;;;;;;5035543;28;20204;-88
2024/03/18 06:34:07;;;;;;;27.52;10.38;;;10.20;99.90;;;;;;5035117;28;20722;-87
2024/03/18 06:36:33;;;;;;;26.42;9.32;;;10.20;99.90;;;;;;5035488;28;20538;-88
2024/03/18 06:38:59;;;;;;;24.13;8.98;;;10.20;99.90;;;;;;5053302;28;20161;-88
2024/03/18 06:41:25;;;;;;;25.93;8.73;;;10.30;99.90;;;;;;5035058;28;20185;-88
2024/03/18 06:43:51;;;;;;;24.17;9.30;;;10.30;99.90;;;;;;5053001;28;20626;-88
2024/03/18 06:46:17;;;;;;;23.50;8.60;;;10.30;99.90;;;;;;5052938;28;20192;-88
2024/03/18 06:48:43;;;;;;;21.33;8.30;;;10.30;99.90;;;;;;5052916;28;20908;-88
2024/03/18 06:51:18;;;;;;;22.90;10.03;;;10.40;99.90;;;;;;5035161;28;20227;-88
2024/03/18 06:53:43;;;;;;;22.90;8.55;;;10.40;99.90;;;;;;5035296;28;20420;-88
2024/03/18 06:56:09;;;;;;;23.50;8.63;;;10.40;99.90;;;;;;5052883;28;20235;-88
2024/03/18 06:58:36;;;;;;;25.55;8.98;;;10.40;99.90;;;;;;5052869;28;20338;-88
2024/03/18 07:01:05;;;;;;;23.90;9.75;;;10.40;99.90;;;;;;5052998;28;20177;-88
2024/03/18 07:03:31;;;;;;;22.63;8.73;;;10.50;99.90;;;;;;5036072;28;20165;-88
2024/03/18 07:05:57;;;;;;;29.50;11.20;;;10.60;99.90;;;;;;5057155;28;20600;-88
2024/03/18 07:08:22;;;;;;;25.83;10.30;;;10.60;99.90;;;;;;5056912;28;20203;-88
2024/03/18 07:10:48;;;;;;;28.00;9.23;;;10.70;99.90;;;;;;5057088;28;20242;-88
2024/03/18 07:13:14;;;;;;;26.57;9.07;;;10.80;99.90;;;;;;5057267;28;20166;-88
2024/03/18 07:15:39;;;;;;;23.67;9.10;;;10.80;99.90;;;;;;5057190;28;20757;-88
2024/03/18 07:18:05;;;;;;;23.40;8.73;;;10.80;99.90;;;;;;5038940;28;20511;-88
2024/03/18 07:20:31;;;;;;;20.73;8.63;;;10.80;99.90;;;;;;5056782;28;20177;-88
2024/03/18 07:22:57;;;;;;;24.97;8.50;;;11.00;99.90;;;;;;5057082;28;20169;-88
2024/03/18 07:25:22;;;;;;;24.67;8.73;;;11.00;99.90;;;;;;5038876;28;20538;-88
2024/03/18 07:27:51;;;;;;;26.70;9.57;;;11.00;99.90;;;;;;5038813;28;20169;-88
2024/03/18 07:30:19;;;;;;;25.92;8.85;;;11.10;99.90;;;;;;5056622;28;20219;-88
2024/03/18 07:32:46;;;;;;;23.67;8.93;;;11.10;99.90;;;;;;5038472;28;20189;-88
2024/03/18 07:35:14;;;;;;;31.30;9.40;;;11.10;99.90;;;;;;5056960;28;20161;-88
2024/03/18 07:37:41;;;;;;;26.33;8.05;;;11.20;99.90;;;;;;5038824;28;20586;-88
2024/03/18 07:40:11;;;;;;;22.48;9.35;;;11.30;99.90;;;;;;5057011;28;20618;-88
2024/03/18 07:42:40;;;;;;;24.00;9.27;;;11.40;99.90;;;;;;5038834;28;20193;-88
2024/03/18 07:45:07;;;;;;;21.48;7.93;;;11.50;99.90;;;;;;5056270;28;20188;-88
2024/03/18 07:47:34;;;;;;;26.80;9.35;;;11.40;99.90;;;;;;5056356;28;20172;-88
2024/03/18 07:50:03;;;;;;;25.08;8.90;;;11.40;99.90;;;;;;5038517;28;20264;-88
2024/03/18 07:52:28;;;;;;;25.83;9.45;;;11.40;99.90;;;;;;5056426;28;20304;-88
2024/03/18 07:54:54;;;;;;;34.97;8.80;;;11.50;99.90;;;;;;5040760;28;20185;-88
2024/03/18 07:57:23;;;;;;;28.50;8.43;;;11.60;99.90;;;;;;5057816;28;20175;-87
2024/03/18 07:59:48;;;;;;;21.98;7.22;;;11.60;99.90;;;;;;5056822;28;20208;-87
2024/03/18 08:02:14;;;;;;;27.03;8.53;;;11.70;99.90;;;;;;5038497;28;20243;-88
2024/03/18 08:04:40;;;;;;;23.53;9.60;;;11.70;99.90;;;;;;5056217;28;20649;-88
2024/03/18 08:07:05;;;;;;;27.37;10.23;;;11.80;99.90;;;;;;5056602;28;20169;-88
2024/03/18 08:09:31;;;;;;;24.50;8.50;;;11.90;99.90;;;;;;5021784;28;20180;-87
2024/03/18 08:11:57;;;;;;;19.90;6.60;;;11.90;99.90;;;;;;5038185;28;20197;-88
2024/03/18 08:14:23;;;;;;;20.70;8.20;;;11.80;99.90;;;;;;5038081;28;20168;-88
2024/03/18 08:16:48;;;;;;;27.67;8.23;;;11.90;99.90;;;;;;5055059;28;20522;-88
2024/03/18 08:19:14;;;;;;;23.10;7.97;;;11.90;99.90;;;;;;5056055;28;20396;-88
2024/03/18 08:21:42;;;;;;;25.87;8.30;;;11.90;99.90;;;;;;5055688;28;20264;-87
2024/03/18 08:24:08;;;;;;;25.17;9.30;;;12.00;99.90;;;;;;5056002;28;20175;-87
2024/03/18 08:26:34;;;;;;;22.67;8.23;;;12.00;99.90;;;;;;5055850;28;20157;-88
2024/03/18 08:29:00;;;;;;;24.70;9.20;;;12.00;99.90;;;;;;5055879;28;20200;-88
2024/03/18 08:31:26;;;;;;;22.52;9.23;;;12.00;99.90;;;;;;5056088;28;20218;-88
2024/03/18 08:33:53;;;;;;;20.97;7.47;;;12.00;99.90;;;;;;5055831;28;20158;-88
2024/03/18 08:36:19;;;;;;;21.40;7.13;;;12.00;99.90;;;;;;5055502;28;20404;-87
2024/03/18 08:38:45;;;;;;;23.27;9.60;;;12.10;99.90;;;;;;5055264;28;20175;-87
2024/03/18 08:41:11;;;;;;;24.97;8.43;;;12.40;99.90;;;;;;5042795;23;20231;-87
2024/03/18 08:43:37;;;;;;;20.08;7.68;;;12.30;99.90;;;;;;5055440;28;20161;-88
2024/03/18 08:46:06;;;;;;;22.60;8.23;;;12.50;99.90;;;;;;5055308;28;20195;-88
2024/03/18 08:48:33;;;;;;;21.45;8.25;;;12.60;99.90;;;;;;5055396;28;20161;-88
2024/03/18 08:50:59;;;;;;;25.00;8.13;;;12.70;99.90;;;;;;5037007;28;20196;-88
2024/03/18 08:53:28;;;;;;;22.50;7.47;;;12.90;99.90;;;;;;5055633;28;20157;-87
2024/03/18 08:55:54;;;;;;;22.63;8.73;;;13.00;99.90;;;;;;5056032;28;20419;-88
2024/03/18 08:58:20;;;;;;;19.90;7.60;;;13.00;99.90;;;;;;5037646;28;20170;-87
2024/03/18 09:00:48;;;;;;;22.33;7.80;;;12.80;99.90;;;;;;5054871;28;20420;-87
2024/03/18 09:03:14;;;;;;;21.75;7.32;;;13.00;99.90;;;;;;5055017;28;20161;-87
2024/03/18 09:05:39;;;;;;;22.30;7.63;;;13.00;99.90;;;;;;5054686;28;20172;-87
2024/03/18 09:08:05;;;;;;;22.73;8.70;;;13.20;99.90;;;;;;5054973;28;20191;-87
2024/03/18 09:10:31;;;;;;;23.60;7.97;;;13.20;99.90;;;;;;5054721;28;20168;-87
2024/03/18 09:12:58;;;;;;;21.70;7.20;;;13.20;99.90;;;;;;5036803;28;20487;-87
2024/03/18 09:15:24;;;;;;;19.63;7.33;;;13.30;99.90;;;;;;5054570;28;20407;-87
2024/03/18 09:17:49;;;;;;;22.37;8.23;;;13.50;99.90;;;;;;5054655;28;20434;-87
2024/03/18 09:20:16;;;;;;;25.73;8.40;;;13.60;99.90;;;;;;5036780;28;20165;-87
2024/03/18 09:22:43;;;;;;;19.80;6.83;;;13.70;99.90;;;;;;5054723;28;20216;-87
2024/03/18 09:25:09;;;;;;;22.93;7.30;;;13.80;99.90;;;;;;5036977;28;20430;-88
2024/03/18 09:27:36;;;;;;;19.50;7.07;;;13.80;99.90;;;;;;5037115;28;20414;-87
2024/03/18 09:30:02;;;;;;;24.13;6.73;;;13.50;99.90;;;;;;5037015;28;20418;-87
2024/03/18 09:32:29;;;;;;;19.50;5.80;;;13.50;99.90;;;;;;5054340;28;20970;-87
2024/03/18 09:34:54;;;;;;;18.27;4.83;;;13.70;99.90;;;;;;5054487;28;20427;-87
2024/03/18 09:37:20;;;;;;;17.50;5.07;;;13.80;99.90;;;;;;5055028;28;20880;-87
2024/03/18 09:39:46;;;;;;;17.90;5.20;;;14.00;99.90;;;;;;5054389;28;20161;-87
2024/03/18 09:42:13;;;;;;;16.97;5.00;;;14.00;99.90;;;;;;5036485;28;20291;-87
2024/03/18 09:44:39;;;;;;;17.57;4.47;;;14.00;99.90;;;;;;5054450;28;20211;-87
2024/03/18 09:47:05;;;;;;;17.10;4.97;;;13.90;99.90;;;;;;5036448;28;20963;-87
2024/03/18 09:49:32;;;;;;;20.37;6.37;;;13.90;99.90;;;;;;5054219;28;20808;-87
2024/03/18 09:51:58;;;;;;;19.47;5.60;;;13.90;99.90;;;;;;5054025;28;20552;-87
2024/03/18 09:54:24;;;;;;;20.37;5.77;;;13.90;99.90;;;;;;5036476;28;20476;-87
2024/03/18 09:57:04;;;;;;;19.00;6.30;;;14.00;99.90;;;;;;5054198;28;20399;-87
2024/03/18 09:59:30;;;;;;;25.50;6.07;;;14.10;99.90;;;;;;5054296;28;20476;-87
2024/03/18 10:01:56;;;;;;;18.50;5.73;;;14.20;99.90;;;;;;5035966;28;20494;-87
2024/03/18 10:04:21;;;;;;;18.63;4.90;;;14.30;99.90;;;;;;5054192;28;20407;-88
2024/03/18 10:06:48;;;;;;;16.90;4.50;;;14.40;99.90;;;;;;5036451;28;20678;-87
2024/03/18 10:09:15;;;;;;;15.87;3.40;;;14.50;99.90;;;;;;5054296;28;20165;-87
2024/03/18 10:11:44;;;;;;;18.73;5.20;;;14.50;99.90;;;;;;5054231;28;20450;-87
2024/03/18 10:14:11;;;;;;;21.20;5.17;;;14.40;99.90;;;;;;5054344;28;20901;-87
2024/03/18 10:16:38;;;;;;;24.70;4.20;;;14.40;99.90;;;;;;5036675;28;20774;-87
2024/03/18 10:19:06;;;;;;;20.43;4.50;;;14.50;99.90;;;;;;5054107;28;20785;-86
2024/03/18 10:21:34;;;;;;;14.37;3.07;;;14.70;99.90;;;;;;5054332;28;20419;-87
2024/03/18 10:24:04;;;;;;;16.10;2.97;;;14.90;99.90;;;;;;5055014;28;20414;-87
2024/03/18 10:26:31;;;;;;;16.87;2.23;;;15.30;99.90;;;;;;5036898;28;20422;-86
2024/03/18 10:28:57;;;;;;;15.20;3.33;;;15.50;99.90;;;;;;5058115;28;20410;-87
2024/03/18 10:31:23;;;;;;;14.83;1.70;;;15.80;99.90;;;;;;5058239;28;20447;-87
2024/03/18 10:33:49;;;;;;;17.80;2.30;;;15.90;99.90;;;;;;5038306;28;20189;-87
2024/03/18 10:36:26;;;;;;;20.40;1.50;;;16.20;99.90;;;;;;5037594;28;20943;-87
2024/03/18 10:39:07;;;;;;;16.00;1.90;;;16.30;99.90;;;;;;5056036;28;20568;-87
2024/03/18 10:41:39;;;;;;;19.07;1.70;;;16.10;97.70;;;;;;5038291;28;20569;-87
2024/03/18 10:44:17;;;;;;;15.80;2.07;;;16.00;91.00;;;;;;5056469;28;20383;-87
2024/03/18 10:46:45;;;;;;;13.27;1.30;;;15.80;88.60;;;;;;5055942;28;20383;-87
2024/03/18 10:49:21;;;;;;;14.17;1.77;;;15.80;71.50;;;;;;5055905;28;20537;-87
2024/03/18 10:51:48;;;;;;;15.30;1.83;;;15.70;9.50;;;;;;5039750;28;20493;-87
2024/03/18 10:54:15;;;;;;;18.80;2.20;;;15.70;1.00;;;;;;5057203;28;20833;-87
2024/03/18 10:56:44;;;;;;;15.77;2.40;;;15.60;1.00;;;;;;5059127;28;20399;-87
2024/03/18 10:59:15;;;;;;;13.50;1.70;;;15.80;1.00;;;;;;5042071;28;20412;-86
2024/03/18 11:01:47;;;;;;;13.00;1.30;;;16.10;1.00;;;;;;5042362;28;20451;-86
2024/03/18 11:04:25;;;;;;;17.27;2.33;;;16.10;1.00;;;;;;5040723;28;20411;-87
2024/03/18 11:06:53;;;;;;;14.73;1.90;;;16.20;1.00;;;;;;5057171;28;20809;-85
2024/03/18 11:09:23;;;;;;;16.80;1.77;;;16.20;1.00;;;;;;5057869;28;20387;-85
2024/03/18 11:11:50;;;;;;;13.67;1.47;;;16.10;1.00;;;;;;5054886;28;21032;-84
2024/03/18 11:14:29;;;;;;;14.50;1.47;;;16.20;1.00;;;;;;5053340;28;20492;-85
2024/03/18 11:16:56;;;;;;;14.60;1.30;;;16.50;1.00;;;;;;5053181;28;20388;-84
2024/03/18 11:19:32;;;;;;;15.77;1.63;;;16.90;1.00;;;;;;5035607;28;20437;-86
2024/03/18 11:22:00;;;;;;;14.17;1.83;;;17.10;1.00;;;;;;5053782;28;20419;-85
2024/03/18 11:24:30;;;;;;;17.03;1.90;;;17.10;1.00;;;;;;5036448;28;20808;-85
2024/03/18 11:26:59;;;;;;;16.03;2.20;;;17.20;1.00;;;;;;5037010;28;20407;-86
2024/03/18 11:29:39;;;;;;;13.43;1.73;;;17.40;1.00;;;;;;5057440;28;20388;-85
2024/03/18 11:32:08;;;;;;;14.60;1.97;;;17.40;1.00;;;;;;5040684;28;20458;-85
2024/03/18 11:34:38;;;;;;;17.23;2.33;;;17.20;1.00;;;;;;5058279;28;20404;-86
2024/03/18 11:37:05;;;;;;;17.57;1.83;;;17.00;1.00;;;;;;5057725;28;20431;-85
2024/03/18 11:39:31;;;;;;;14.70;2.00;;;16.90;1.00;;;;;;5058991;28;20494;-86
2024/03/18 11:42:01;;;;;;;14.93;2.03;;;16.70;1.00;;;;;;5039189;28;20463;-86
2024/03/18 11:44:26;;;;;;;17.50;1.67;;;16.70;1.00;;;;;;5040290;28;20453;-85
2024/03/18 11:47:06;;;;;;;14.00;2.20;;;16.90;1.00;;;;;;5057175;28;20411;-85
2024/03/18 11:49:33;;;;;;;14.93;2.10;;;16.90;1.00;;;;;;5038096;28;20173;-85
2024/03/18 11:51:59;;;;;;;16.60;2.33;;;17.00;1.00;;;;;;5040209;28;20451;-85
2024/03/18 11:54:26;;;;;;;15.30;1.63;;;17.20;1.00;;;;;;5042030;28;20404;-85
2024/03/18 11:57:01;;;;;;;17.27;2.33;;;17.40;1.00;;;;;;5059713;28;20404;-85
2024/03/18 11:59:27;;;;;;;16.07;2.20;;;17.50;1.00;;;;;;5059813;28;20869;-85
2024/03/18 12:01:58;;;;;;;14.87;2.50;;;17.70;1.00;;;;;;5060168;28;20458;-85
2024/03/18 12:04:24;;;;;;;15.40;2.00;;;18.00;1.00;;;;;;5061163;28;20299;-85
2024/03/18 12:06:50;;;;;;;14.27;2.43;;;18.20;1.00;;;;;;5043045;28;20909;-85
2024/03/18 12:09:22;;;;;;;17.20;2.20;;;18.30;1.00;;;;;;5058529;28;20406;-85
2024/03/18 12:11:48;;;;;;;14.63;2.13;;;18.30;1.00;;;;;;5059632;28;20236;-85
2024/03/18 12:14:13;;;;;;;17.00;2.70;;;18.40;1.00;;;;;;5059376;28;20399;-85
2024/03/18 12:16:44;;;;;;;14.20;2.00;;;18.40;1.00;;;;;;5060340;28;20761;-85
2024/03/18 12:19:10;;;;;;;14.20;1.77;;;18.40;1.00;;;;;;5060995;28;20148;-85
2024/03/18 12:21:39;;;;;;;17.63;2.30;;;18.40;1.00;;;;;;5059264;28;20826;-85
2024/03/18 12:29:37;;;;;;;17.07;2.00;;;18.80;1.00;;;;;;5059454;28;20419;-85
2024/03/18 12:32:03;;;;;;;17.50;2.17;;;19.10;1.00;;;;;;5058378;28;20455;-85
2024/03/18 12:34:30;;;;;;;17.73;2.33;;;18.80;1.00;;;;;;5039580;28;20256;-85
2024/03/18 12:36:59;;;;;;;14.97;2.27;;;18.40;1.00;;;;;;5057947;28;20429;-85
2024/03/18 12:39:27;;;;;;;16.77;2.47;;;18.10;1.00;;;;;;5057611;28;20442;-85
2024/03/18 12:41:53;;;;;;;19.30;3.00;;;17.80;1.00;;;;;;5057249;28;20435;-85
2024/03/18 12:44:19;;;;;;;20.50;2.80;;;17.60;1.00;;;;;;5057046;28;20928;-85